Time;durP1;ratioP1;P1;durP2;ratioP2;P2;SDS_P1;SDS_P2;PMS_P1;PMS_P2;Temp;Humidity;BMP_temperature;BMP_pressure;BME280_temperature;BME280_humidity;BME280_pressure;Samples;Min_cycle;Max_cycle;Signal;HPM_P1;HPM_P2
2023/05/15 00:02:20;;;;;;;;;42.00;35.67;;;;;15.45;80.96;100996.38;4742038;29;45386;-86
2023/05/15 00:04:56;;;;;;;;;48.33;38.33;;;;;15.40;80.86;100969.59;4755658;29;45589;-86
2023/05/15 00:07:24;;;;;;;;;39.00;34.33;;;;;15.13;80.42;100949.13;4757931;29;47144;-86
2023/05/15 00:09:50;;;;;;;;;46.33;39.00;;;;;15.15;80.74;100958.03;4743794;29;45350;-85
2023/05/15 00:12:15;;;;;;;;;43.00;35.00;;;;;15.06;81.20;100950.00;4742416;30;44796;-86
2023/05/15 00:14:41;;;;;;;;;42.00;36.33;;;;;15.35;80.62;100988.38;4742236;30;45403;-86
2023/05/15 00:17:07;;;;;;;;;40.67;36.00;;;;;15.23;81.01;100953.56;4744936;30;45585;-86
2023/05/15 00:19:32;;;;;;;;;32.33;30.67;;;;;15.12;81.25;100947.31;4742823;30;45753;-86
2023/05/15 00:22:01;;;;;;;;;47.33;39.00;;;;;15.11;80.93;100941.06;4742008;30;45431;-86
2023/05/15 00:24:26;;;;;;;;;44.67;38.00;;;;;15.09;81.16;100944.63;4757840;29;45558;-86
2023/05/15 00:26:52;;;;;;;;;46.00;39.00;;;;;15.18;81.27;100968.75;4743084;30;45775;-86
2023/05/15 00:29:17;;;;;;;;;50.00;41.00;;;;;15.09;81.78;100958.00;4743487;30;45607;-86
2023/05/15 00:31:43;;;;;;;;;49.00;40.33;;;;;15.08;82.14;100937.50;4756374;29;45416;-86
2023/05/15 00:34:08;;;;;;;;;48.00;40.00;;;;;15.12;81.89;100936.59;4756499;29;45420;-86
2023/05/15 00:36:34;;;;;;;;;47.00;40.00;;;;;15.09;82.96;100928.56;4742434;30;47332;-86
2023/05/15 00:38:59;;;;;;;;;53.33;42.00;;;;;15.09;82.00;100928.56;4742793;30;45619;-87
2023/05/15 00:41:32;;;;;;;;;52.00;43.00;;;;;15.07;82.11;100927.66;4743701;29;45399;-86
2023/05/15 00:44:10;;;;;;;;;49.00;40.33;;;;;15.19;83.60;100949.09;4742638;30;45443;-86
2023/05/15 00:46:37;;;;;;;;;57.00;44.33;;;;;14.93;82.99;100909.84;4756755;29;46982;-86
2023/05/15 00:49:05;;;;;;;;;47.67;41.00;;;;;15.04;82.94;100941.06;4758236;29;45402;-86
2023/05/15 00:51:31;;;;;;;;;51.00;40.33;;;;;15.02;83.11;100940.19;4741541;29;45443;-86
2023/05/15 00:53:58;;;;;;;;;53.00;44.00;;;;;15.11;83.12;100948.22;4742358;30;44824;-86
2023/05/15 00:56:30;;;;;;;;;54.33;44.33;;;;;14.87;82.91;100907.16;4757919;29;46984;-86
2023/05/15 00:58:58;;;;;;;;;50.67;42.33;;;;;14.92;83.69;100936.63;4745572;29;45413;-86
2023/05/15 01:01:33;;;;;;;;;52.00;42.00;;;;;15.20;84.01;100961.59;4758204;29;45419;-86
2023/05/15 01:04:02;;;;;;;;;54.00;44.00;;;;;15.02;83.64;100934.81;4759519;29;45570;-86
2023/05/15 01:06:29;;;;;;;;;51.50;42.50;;;;;14.94;82.98;100914.28;4759628;29;48127;-86
2023/05/15 01:08:58;;;;;;;;;54.33;44.33;;;;;15.15;83.35;100960.72;4759654;29;45840;-86
2023/05/15 01:11:27;;;;;;;;;46.00;34.67;;;;;15.13;83.99;100951.78;4743988;29;45360;-86
2023/05/15 01:13:52;;;;;;;;;56.33;45.67;;;;;14.93;84.08;100941.97;4741805;30;45373;-86
2023/05/15 01:16:23;;;;;;;;;54.67;42.67;;;;;15.12;83.19;100923.22;4756146;29;47259;-86
2023/05/15 01:18:48;;;;;;;;;51.00;42.33;;;;;15.06;84.67;100953.56;4742116;29;45427;-86
2023/05/15 01:21:36;;;;;;;;;55.00;43.67;;;;;14.89;84.50;100907.19;4743392;30;45413;-87
2023/05/15 01:24:26;;;;;;;;;56.67;46.00;;;;;14.98;83.97;100916.06;4742705;30;45370;-86
2023/05/15 01:27:30;;;;;;;;;59.25;46.75;;;;;15.22;84.70;100965.16;4741418;30;47130;-86
2023/05/15 01:30:20;;;;;;;;;50.67;43.00;;;;;15.19;83.92;100955.34;4743503;29;45424;-86
2023/05/15 01:32:54;;;;;;;;;56.67;45.67;;;;;14.93;83.73;100915.19;4755906;29;45341;-86
2023/05/15 01:35:38;;;;;;;;;51.67;41.67;;;;;15.25;83.82;100957.13;4742329;29;45409;-86
2023/05/15 01:38:41;;;;;;;;;50.33;42.33;;;;;15.19;83.33;100952.66;4740968;30;47069;-86
2023/05/15 01:41:14;;;;;;;;;54.00;41.00;;;;;15.29;83.08;100953.56;4742325;30;45764;-86
2023/05/15 01:43:44;;;;;;;;;52.67;40.33;;;;;15.33;82.97;100970.50;4741435;30;44799;-86
2023/05/15 01:46:15;;;;;;;;;56.33;46.67;;;;;15.16;82.21;100930.34;4743222;29;45454;-86
2023/05/15 01:48:44;;;;;;;;;53.00;43.33;;;;;15.05;82.53;100922.34;4743123;30;46340;-86
2023/05/15 01:51:12;;;;;;;;;58.67;46.67;;;;;15.15;82.13;100925.91;4742333;30;45482;-86
2023/05/15 01:53:41;;;;;;;;;56.00;43.67;;;;;15.29;82.21;100949.94;4742377;30;45377;-86
2023/05/15 01:56:08;;;;;;;;;57.25;46.00;;;;;15.23;81.56;100940.16;4741215;30;45364;-86
2023/05/15 01:58:36;;;;;;;;;49.00;38.67;;;;;15.02;83.24;100937.50;4742078;30;46379;-86
2023/05/15 02:01:03;;;;;;;;;49.33;40.00;;;;;14.82;84.11;100951.78;4740637;30;45408;-86
2023/05/15 02:03:35;;;;;;;;;55.33;43.67;;;;;14.54;85.40;100930.34;4756639;29;45326;-86
2023/05/15 02:06:03;;;;;;;;;59.33;46.00;;;;;14.36;86.48;100935.66;4759285;29;45443;-86
2023/05/15 02:08:29;;;;;;;;;54.67;44.00;;;;;14.27;86.59;100947.25;4758314;29;47829;-86
2023/05/15 02:10:57;;;;;;;;;57.33;45.67;;;;;14.18;86.56;100901.75;4746203;29;45562;-86
2023/05/15 02:13:25;;;;;;;;;54.33;45.33;;;;;14.27;86.94;100936.53;4743610;29;45742;-86
2023/05/15 02:15:53;;;;;;;;;58.00;47.33;;;;;14.04;87.57;100912.44;4743268;30;45347;-86
2023/05/15 02:18:19;;;;;;;;;50.33;41.67;;;;;14.16;87.68;100920.47;4756058;29;46812;-86
2023/05/15 02:20:44;;;;;;;;;59.67;47.00;;;;;14.39;87.25;100960.63;4742195;29;45428;-86
2023/05/15 02:23:10;;;;;;;;;56.00;44.33;;;;;14.20;87.69;100932.97;4743441;29;45362;-86
2023/05/15 02:26:07;;;;;;;;;56.67;44.33;;;;;14.28;87.10;100926.72;4756968;29;44859;-86
2023/05/15 02:28:47;;;;;;;;;52.33;42.67;;;;;14.37;87.35;100943.69;4691417;30;48155;-86
2023/05/15 02:31:34;;;;;;;;;56.67;45.00;;;;;14.38;86.36;100926.75;4695969;30;45828;-86
2023/05/15 02:34:16;;;;;;;;;54.67;44.00;;;;;14.52;85.57;100941.91;4711347;30;45479;-86
2023/05/15 02:36:45;;;;;;;;;54.00;44.67;;;;;14.38;86.05;100928.53;4693211;30;45483;-86
2023/05/15 02:39:14;;;;;;;;;53.33;42.33;;;;;14.23;85.96;100907.13;4705951;30;47904;-86
2023/05/15 02:41:40;;;;;;;;;56.00;44.50;;;;;14.43;86.31;100950.84;4694563;30;45577;-86
2023/05/15 02:44:07;;;;;;;;;53.67;40.00;;;;;14.12;85.34;100905.31;4708889;30;45382;-86
2023/05/15 02:46:33;;;;;;;;;52.50;42.25;;;;;14.28;86.41;100937.41;4694055;30;45379;-86
2023/05/15 02:49:05;;;;;;;;;55.67;45.00;;;;;14.41;86.06;100939.25;4692569;30;47586;-86
2023/05/15 02:51:40;;;;;;;;;59.00;45.33;;;;;14.31;85.73;100913.38;4708506;30;45496;-86
2023/05/15 02:54:08;;;;;;;;;55.33;43.00;;;;;14.14;85.78;100886.59;4698149;30;45446;-86
2023/05/15 02:56:34;;;;;;;;;55.33;43.67;;;;;14.34;85.91;100945.47;4712622;30;45409;-86
2023/05/15 02:59:00;;;;;;;;;55.33;44.33;;;;;14.14;85.86;100906.22;4695912;30;46703;-86
2023/05/15 03:01:28;;;;;;;;;55.33;44.67;;;;;14.30;86.42;100952.63;4696990;30;45561;-86
2023/05/15 03:03:54;;;;;;;;;54.33;44.00;;;;;13.94;87.48;100927.53;4697415;30;45489;-86
2023/05/15 03:06:19;;;;;;;;;55.33;44.67;;;;;13.86;89.41;100939.13;4756142;29;45702;-86
2023/05/15 03:08:45;;;;;;;;;50.67;40.33;;;;;13.61;88.35;100906.91;4762489;29;47005;-86
2023/05/15 03:11:10;;;;;;;;;51.33;40.33;;;;;13.57;89.42;100906.03;4746881;29;45503;-86
2023/05/15 03:13:36;;;;;;;;;47.00;38.33;;;;;13.72;89.37;100926.56;4761169;29;44837;-86
2023/05/15 03:16:23;;;;;;;;;55.67;43.67;;;;;13.94;89.44;100938.25;4747668;29;45451;-85
2023/05/15 03:18:49;;;;;;;;;51.00;44.33;;;;;13.84;88.30;100946.22;4749670;30;45493;-86
2023/05/15 03:21:14;;;;;;;;;56.33;43.33;;;;;13.49;89.28;100885.47;4762717;29;45225;-86
2023/05/15 03:23:40;;;;;;;;;50.00;41.00;;;;;13.76;89.45;100933.72;4746258;29;45875;-86
2023/05/15 03:26:05;;;;;;;;;48.00;38.33;;;;;13.65;89.09;100913.16;4746535;29;44979;-86
2023/05/15 03:28:31;;;;;;;;;51.67;41.67;;;;;13.85;89.81;100939.97;4760637;29;47228;-86
2023/05/15 03:30:57;;;;;;;;;50.33;41.33;;;;;13.71;89.58;100898.03;4746901;29;45949;-86
2023/05/15 03:33:22;;;;;;;;;50.00;36.33;;;;;13.99;88.63;100936.47;4749580;29;45425;-85
2023/05/15 03:35:50;;;;;;;;;46.33;40.00;;;;;13.80;87.17;100908.78;4748919;29;45400;-86
2023/05/15 03:38:18;;;;;;;;;55.00;45.33;;;;;13.94;87.59;100906.16;4750436;29;45400;-85
2023/05/15 03:40:46;;;;;;;;;47.67;40.00;;;;;13.82;87.18;100892.75;4748652;29;45410;-86
2023/05/15 03:43:14;;;;;;;;;48.33;42.00;;;;;13.95;86.89;100912.38;4747714;29;45483;-86
2023/05/15 03:45:40;;;;;;;;;54.33;42.00;;;;;14.02;86.69;100924.91;4746970;29;45465;-86
2023/05/15 03:48:05;;;;;;;;;51.67;41.00;;;;;13.80;86.42;100894.53;4761921;29;46835;-86
2023/05/15 03:50:33;;;;;;;;;51.00;39.67;;;;;14.01;86.97;100934.69;4762654;29;45376;-86
2023/05/15 03:53:02;;;;;;;;;53.67;39.00;;;;;13.78;86.80;100899.88;4762159;29;44821;-86
2023/05/15 03:55:28;;;;;;;;;49.33;40.67;;;;;13.97;86.49;100948.03;4761585;29;44992;-87
2023/05/15 03:57:54;;;;;;;;;52.00;43.67;;;;;13.91;86.29;100931.97;4761835;29;47185;-87
2023/05/15 04:00:19;;;;;;;;;45.67;38.67;;;;;13.73;86.76;100928.34;4747496;29;45820;-85
2023/05/15 04:02:45;;;;;;;;;52.67;41.00;;;;;13.61;87.60;100917.59;4749326;29;45411;-85
2023/05/15 04:05:10;;;;;;;;;50.67;40.67;;;;;13.43;87.72;100891.69;4760389;29;44924;-86
2023/05/15 04:07:36;;;;;;;;;52.33;41.33;;;;;13.72;88.02;100928.38;4759705;29;46888;-85
2023/05/15 04:10:02;;;;;;;;;51.33;39.67;;;;;13.62;88.69;100924.75;4743068;29;45480;-85
2023/05/15 04:12:29;;;;;;;;;56.67;46.33;;;;;13.63;88.45;100913.16;4757534;29;44856;-85
2023/05/15 04:14:57;;;;;;;;;50.00;40.33;;;;;13.65;89.05;100916.72;4761435;29;45449;-85
2023/05/15 04:17:25;;;;;;;;;44.00;39.67;;;;;13.72;89.59;100917.66;4761126;29;47048;-85
2023/05/15 04:19:51;;;;;;;;;48.00;40.00;;;;;13.52;89.06;100893.53;4760300;29;45473;-85
2023/05/15 04:22:16;;;;;;;;;53.00;44.00;;;;;13.63;89.00;100898.91;4760545;29;45300;-85
2023/05/15 04:24:42;;;;;;;;;53.33;42.67;;;;;13.63;88.69;100893.56;4759577;29;45779;-85
2023/05/15 04:27:07;;;;;;;;;51.67;42.33;;;;;13.76;88.35;100903.44;4757145;29;47902;-86
2023/05/15 04:29:33;;;;;;;;;50.33;41.00;;;;;13.68;88.87;100895.38;4762576;29;45460;-86
2023/05/15 04:31:59;;;;;;;;;47.33;39.67;;;;;13.90;89.12;100916.84;4759947;29;45771;-86
2023/05/15 04:34:25;;;;;;;;;53.00;38.67;;;;;13.80;88.64;100914.13;4759589;29;45590;-86
2023/05/15 04:36:50;;;;;;;;;52.67;40.67;;;;;13.63;88.42;100893.56;4758744;29;47085;-86
2023/05/15 04:39:16;;;;;;;;;54.33;40.67;;;;;13.83;88.73;100934.63;4759064;29;45308;-86
2023/05/15 04:41:41;;;;;;;;;52.00;41.00;;;;;13.65;88.70;100899.81;4757765;29;45479;-86
2023/05/15 04:44:07;;;;;;;;;47.33;40.00;;;;;13.75;89.12;100910.53;4758666;29;45516;-86
2023/05/15 04:46:33;;;;;;;;;47.33;40.33;;;;;13.65;89.54;100887.31;4758124;29;47981;-86
2023/05/15 04:48:59;;;;;;;;;50.67;39.67;;;;;13.93;89.20;100917.72;4759837;29;45686;-86
2023/05/15 04:51:25;;;;;;;;;38.33;29.33;;;;;13.83;89.15;100883.81;4759709;29;45550;-86
2023/05/15 04:53:50;;;;;;;;;51.33;40.67;;;;;13.76;89.57;100876.69;4760295;29;45308;-86
2023/05/15 04:56:16;;;;;;;;;46.33;37.67;;;;;13.73;89.28;100872.22;4758745;29;47094;-86
2023/05/15 04:58:43;;;;;;;;;49.67;40.67;;;;;13.87;90.02;100908.81;4759511;29;45373;-86
2023/05/15 05:01:09;;;;;;;;;57.00;44.67;;;;;13.89;89.78;100912.38;4759877;29;44744;-86
2023/05/15 05:03:34;;;;;;;;;53.00;39.33;;;;;13.74;90.29;100871.34;4758976;29;45394;-86
2023/05/15 05:06:06;;;;;;;;;50.33;38.33;;;;;13.85;91.28;100894.53;4760549;29;47160;-86
2023/05/15 05:08:31;;;;;;;;;50.33;41.00;;;;;13.75;90.79;100875.78;4761825;29;45616;-86
2023/05/15 05:11:33;;;;;;;;;46.67;38.67;;;;;14.19;91.67;100917.78;4761842;29;45385;-86
2023/05/15 05:14:02;;;;;;;;;48.00;40.67;;;;;13.83;93.41;100861.56;4759821;29;45419;-86
2023/05/15 05:16:28;;;;;;;;;44.00;37.00;;;;;13.92;92.62;100889.22;4760584;29;46611;-86
2023/05/15 05:19:02;;;;;;;;;54.00;41.33;;;;;14.07;94.41;100891.03;4759895;29;45431;-86
2023/05/15 05:21:27;;;;;;;;;46.33;38.33;;;;;13.93;94.20;100892.78;4760229;29;45520;-86
2023/05/15 05:23:53;;;;;;;;;49.33;39.33;;;;;14.04;96.14;100915.09;4759492;29;45668;-86
2023/05/15 05:26:18;;;;;;;;;47.00;41.67;;;;;13.80;96.00;100873.16;4759609;29;46925;-86
2023/05/15 05:28:43;;;;;;;;;46.67;36.33;;;;;13.92;97.49;100901.69;4759269;29;45370;-86
2023/05/15 05:31:09;;;;;;;;;59.00;43.67;;;;;14.08;97.81;100916.91;4759069;29;45430;-86
2023/05/15 05:33:35;;;;;;;;;54.67;43.67;;;;;13.99;97.38;100908.84;4759308;29;45279;-86
2023/05/15 05:36:04;;;;;;;;;50.00;40.33;;;;;14.00;97.32;100894.59;4759793;29;47664;-86
2023/05/15 05:38:32;;;;;;;;;45.33;37.67;;;;;14.17;96.86;100911.53;4763860;29;44841;-86
2023/05/15 05:40:57;;;;;;;;;47.67;38.00;;;;;13.94;97.75;100879.41;4764419;29;45415;-86
2023/05/15 05:43:43;;;;;;;;;47.67;37.33;;;;;14.11;97.74;100890.13;4787693;29;45430;-86
2023/05/15 05:46:15;;;;;;;;;44.67;38.00;;;;;14.10;98.76;100884.78;4782850;29;47906;-86
2023/05/15 05:48:43;;;;;;;;;59.33;44.33;;;;;14.07;98.91;100872.31;4802118;29;44834;-86
2023/05/15 05:51:16;;;;;;;;;56.33;43.00;;;;;13.86;99.54;100874.94;4787898;29;45373;-86
2023/05/15 05:53:42;;;;;;;;;55.33;42.33;;;;;14.24;99.63;100923.16;4805276;29;45439;-87
2023/05/15 05:56:09;;;;;;;;;45.33;38.00;;;;;14.01;99.62;100891.00;4788705;29;47704;-85
2023/05/15 05:58:34;;;;;;;;;43.00;34.33;;;;;14.14;99.55;100914.22;4786742;29;45454;-86
2023/05/15 06:01:56;;;;;;;;;52.00;39.00;;;;;14.44;99.88;100917.84;4785686;29;45445;-86
2023/05/15 06:04:22;;;;;;;;;54.67;44.00;;;;;14.13;100.00;100923.13;4786424;29;45603;-87
2023/05/15 06:06:54;;;;;;;;;53.33;39.33;;;;;14.01;99.78;100902.59;4787607;29;48393;-86
2023/05/15 06:09:19;;;;;;;;;52.00;42.33;;;;;14.07;99.85;100909.75;4788693;29;45404;-86
2023/05/15 06:11:45;;;;;;;;;50.00;39.67;;;;;14.24;100.00;100931.19;4802244;29;45404;-86
2023/05/15 06:14:11;;;;;;;;;51.67;41.33;;;;;14.28;100.00;100927.63;4801572;29;45390;-87
2023/05/15 06:16:39;;;;;;;;;45.00;37.33;;;;;14.14;99.90;100892.84;4785344;29;46885;-87
2023/05/15 06:19:05;;;;;;;;;48.33;40.00;;;;;14.18;99.72;100894.63;4785351;29;45329;-86
2023/05/15 06:21:33;;;;;;;;;52.33;41.00;;;;;14.36;99.15;100887.50;4785066;29;45427;-87
2023/05/15 06:23:59;;;;;;;;;52.33;41.00;;;;;14.57;98.61;100925.00;4801086;29;45344;-86
2023/05/15 06:26:24;;;;;;;;;54.67;44.33;;;;;14.57;98.84;100934.84;4786736;29;46977;-87
2023/05/15 06:28:50;;;;;;;;;50.67;38.67;;;;;14.54;99.43;100929.44;4786299;29;45352;-87
2023/05/15 06:31:16;;;;;;;;;49.33;36.00;;;;;14.48;99.09;100921.41;4788652;29;45405;-86
2023/05/15 06:33:42;;;;;;;;;51.67;40.67;;;;;14.40;98.65;100908.00;4802724;29;45407;-86
2023/05/15 06:36:17;;;;;;;;;54.00;42.67;;;;;14.51;98.72;100914.28;4787275;29;46869;-86
2023/05/15 06:39:18;;;;;;;;;50.33;39.00;;;;;14.60;99.08;100914.31;4786504;29;45845;-86
2023/05/15 06:42:41;;;;;;;;;41.67;34.67;;;;;14.76;98.65;100936.59;4784528;29;45337;-86
2023/05/15 06:45:10;;;;;;;;;50.00;38.00;;;;;14.48;98.81;100886.63;4764109;29;45640;-87
2023/05/15 06:48:05;;;;;;;;;44.33;31.67;;;;;14.65;98.41;100921.47;4766250;29;47075;-86
2023/05/15 06:51:25;;;;;;;;;46.00;38.00;;;;;15.05;97.64;100921.41;4762107;29;44936;-86
2023/05/15 06:54:01;;;;;;;;;51.33;39.33;;;;;14.87;96.97;100899.13;4660840;30;45434;-86
2023/05/15 06:57:18;;;;;;;;;48.00;39.00;;;;;15.25;96.33;100929.41;4662094;30;45646;-86
2023/05/15 06:59:58;;;;;;;;;47.00;33.67;;;;;15.04;96.08;100903.56;4662196;30;45483;-86
2023/05/15 07:02:29;;;;;;;;;42.33;36.33;;;;;15.44;95.21;100931.16;4665246;30;45491;-87
2023/05/15 07:04:58;;;;;;;;;51.00;37.67;;;;;15.15;94.70;100904.47;4674854;30;45468;-85
2023/05/15 07:08:07;;;;;;;;;46.33;37.33;;;;;15.39;94.47;100912.44;4663693;30;45288;-87
2023/05/15 07:13:42;;;;;;;;;46.00;38.00;;;;;15.55;94.50;100923.09;4641371;30;44872;-86
2023/05/15 07:16:57;;;;;;;;;43.00;36.67;;;;;15.88;92.78;100934.63;4646461;30;45362;-86
2023/05/15 07:19:23;;;;;;;;;39.33;35.67;;;;;15.64;92.72;100923.06;4660869;30;45413;-86
2023/05/15 07:21:51;;;;;;;;;43.67;37.33;;;;;15.55;93.00;100896.28;4645931;30;47062;-87
2023/05/15 07:24:23;;;;;;;;;46.67;37.00;;;;;15.80;92.85;100914.09;4646282;30;45393;-86
2023/05/15 07:27:17;;;;;;;;;41.33;35.67;;;;;15.87;92.87;100933.72;4647352;30;45411;-86
2023/05/15 07:37:17;;;;;;;;;46.33;34.00;;;;;16.23;91.05;100912.94;4633989;30;45348;-86
2023/05/15 11:13:07;;;;;;;;;46.67;37.33;;;;;19.95;68.00;100890.72;4793199;29;46484;-82
2023/05/15 11:41:30;;;;;;;;;;;;;;;;;;;;;
2023/05/15 11:44:22;;;;;;;;;27.67;27.00;;;;;18.84;74.76;100894.69;4694437;30;67715;-85
2023/05/15 11:46:52;;;;;;;;;30.67;30.67;;;;;18.54;76.77;100900.56;4702168;30;45056;-85
2023/05/15 11:56:18;;;;;;;;;48.67;36.00;;;;;18.87;78.23;100898.22;4742017;30;45969;-84
2023/05/15 14:27:35;;;;;;;;;;;;;;;;;;;;;
2023/05/15 14:30:39;;;;;;;;;14.33;13.67;;;;;19.46;69.51;100889.91;4512113;31;72211;-83
2023/05/15 14:33:59;;;;;;;;;;;;;;;;;;;;;
2023/05/15 14:37:25;;;;;;;;;15.33;15.00;;;;;19.10;100.00;100924.75;4514545;31;67253;-84
2023/05/15 14:39:54;;;;;;;;;13.67;13.33;;;;;19.03;91.73;100930.28;4516115;31;45650;-83
2023/05/15 14:42:26;;;;;;;;;14.33;14.33;;;;;18.95;85.32;100898.09;4540360;30;45528;-83
2023/05/15 14:52:17;;;;;;;;;7.00;7.00;;;;;19.51;76.71;100933.88;4701125;30;45726;-83
2023/05/15 15:04:33;;;;;;;;;13.33;11.00;;;;;19.39;76.41;100917.94;4736584;30;45087;-82
2023/05/15 15:20:47;;;;;;;;;;;;;;;;;;;;;
2023/05/15 15:23:25;;;;;;;;;5.67;5.33;;;;;17.88;100.00;100952.66;4748134;30;68005;-84
2023/05/15 15:26:40;;;;;;;;;6.00;5.00;;;;;17.49;100.00;100919.94;4729268;29;45629;-84
2023/05/15 15:29:18;;;;;;;;;7.33;6.00;;;;;17.70;100.00;100909.81;4786086;29;47166;-86
2023/05/15 15:35:09;;;;;;;;;5.33;5.33;;;;;18.97;100.00;100942.97;4783652;29;45422;-84
2023/05/15 15:37:36;;;;;;;;;5.00;5.00;;;;;18.43;100.00;100937.53;4780361;29;45642;-84
2023/05/15 15:40:22;;;;;;;;;6.00;6.00;;;;;18.30;100.00;100939.53;4784148;29;45410;-84
2023/05/15 15:42:52;;;;;;;;;8.33;8.33;;;;;18.12;100.00;100950.56;4788222;29;44754;-84
2023/05/15 15:45:20;;;;;;;;;7.67;6.67;;;;;18.07;100.00;100936.25;4769803;29;45453;-83
2023/05/15 15:47:51;;;;;;;;;5.33;5.33;;;;;18.00;100.00;100951.59;4765463;29;45402;-83
2023/05/15 15:50:17;;;;;;;;;9.33;8.33;;;;;17.75;100.00;100927.69;4767647;29;45464;-83
2023/05/15 15:52:42;;;;;;;;;7.00;7.00;;;;;17.68;100.00;100943.91;4782130;29;45744;-82
2023/05/15 15:55:10;;;;;;;;;8.00;7.00;;;;;17.57;100.00;100944.00;4782862;29;45411;-81
2023/05/15 16:01:07;;;;;;;;;5.33;5.33;;;;;17.57;100.00;100968.22;4783365;29;45714;-83
2023/05/15 16:03:32;;;;;;;;;4.00;4.00;;;;;17.19;100.00;100953.41;4747743;29;46008;-82
2023/05/15 16:06:16;;;;;;;;;6.00;6.00;;;;;17.20;100.00;100969.50;4748451;29;45283;-83
2023/05/15 16:09:01;;;;;;;;;6.67;5.00;;;;;16.99;100.00;100981.34;4762920;29;45398;-82
2023/05/15 16:11:31;;;;;;;;;7.00;5.67;;;;;16.71;100.00;100931.41;4753151;29;47821;-82
2023/05/15 16:14:01;;;;;;;;;8.33;6.67;;;;;16.94;100.00;100979.59;4762806;29;45582;-83
2023/05/15 16:16:28;;;;;;;;;9.00;9.00;;;;;16.72;100.00;100973.47;4776906;29;45531;-83
2023/05/15 16:18:54;;;;;;;;;6.67;5.67;;;;;16.58;100.00;100971.78;4780030;29;45475;-82
2023/05/15 16:21:20;;;;;;;;;7.00;7.00;;;;;16.62;100.00;100980.69;4764910;29;47192;-83
2023/05/15 16:23:45;;;;;;;;;6.00;6.00;;;;;16.60;100.00;100998.59;4778867;29;45515;-82
2023/05/15 16:26:18;;;;;;;;;6.00;6.00;;;;;16.52;100.00;100996.00;4780633;29;45659;-82
2023/05/15 16:28:49;;;;;;;;;4.67;4.67;;;;;16.36;100.00;101016.66;4783666;29;45482;-82
2023/05/15 16:31:15;;;;;;;;;7.33;7.00;;;;;16.25;100.00;101017.63;4785785;29;45456;-82
2023/05/15 16:33:42;;;;;;;;;5.00;5.00;;;;;16.16;100.00;101008.72;4780148;29;45469;-83
2023/05/15 16:36:10;;;;;;;;;7.67;6.67;;;;;16.05;100.00;101021.25;4780213;29;45549;-82
2023/05/15 16:38:35;;;;;;;;;6.00;6.00;;;;;15.96;100.00;101022.19;4781490;29;45444;-83
2023/05/15 16:41:01;;;;;;;;;7.33;6.67;;;;;15.85;100.00;101023.13;4766707;29;46770;-83
2023/05/15 16:43:27;;;;;;;;;5.33;5.33;;;;;15.84;100.00;101038.34;4764305;29;45554;-83
2023/05/15 16:45:53;;;;;;;;;7.67;6.67;;;;;15.87;100.00;101034.75;4781633;29;45401;-83
2023/05/15 16:48:19;;;;;;;;;6.00;6.00;;;;;15.55;100.00;101041.94;4767275;29;45448;-83
2023/05/15 16:50:44;;;;;;;;;5.00;5.00;;;;;15.64;100.00;101038.34;4778552;29;47525;-83
2023/05/15 16:53:10;;;;;;;;;8.00;7.00;;;;;15.54;100.00;101029.44;4764245;29;44872;-83
2023/05/15 16:55:36;;;;;;;;;5.00;4.67;;;;;15.53;100.00;101024.97;4776336;29;45415;-83
2023/05/15 17:01:24;;;;;;;;;9.67;8.33;;;;;15.55;100.00;101041.03;4783427;29;45422;-83
2023/05/15 17:03:51;;;;;;;;;7.67;7.67;;;;;15.53;100.00;101043.75;4777922;29;46260;-82
2023/05/15 17:06:17;;;;;;;;;7.00;7.00;;;;;15.59;100.00;101048.19;4778943;29;45441;-83
2023/05/15 17:08:44;;;;;;;;;8.00;8.00;;;;;15.57;100.00;101056.25;4782013;29;45744;-83
2023/05/15 17:11:12;;;;;;;;;7.33;7.33;;;;;15.58;100.00;101049.09;4776850;29;47826;-83
2023/05/15 17:13:37;;;;;;;;;9.00;7.33;;;;;15.52;100.00;101049.97;4780617;29;45508;-84
2023/05/15 17:16:06;;;;;;;;;7.67;7.67;;;;;15.52;100.00;101052.66;4780139;29;45559;-83
2023/05/15 17:18:31;;;;;;;;;13.00;11.00;;;;;15.52;100.00;101051.78;4765294;29;44861;-83
2023/05/15 17:20:57;;;;;;;;;10.00;9.67;;;;;15.47;100.00;101059.84;4776681;29;47139;-84
2023/05/15 17:23:23;;;;;;;;;9.00;7.00;;;;;15.50;100.00;101067.84;4762686;29;45785;-83
2023/05/15 17:25:48;;;;;;;;;12.67;12.00;;;;;15.39;100.00;101065.19;4779047;29;44898;-83
2023/05/15 17:28:14;;;;;;;;;10.00;9.00;;;;;15.31;100.00;101058.94;4778434;29;45449;-84
2023/05/15 17:30:41;;;;;;;;;12.33;11.67;;;;;15.39;100.00;101067.88;4780033;29;46210;-84
2023/05/15 17:33:06;;;;;;;;;11.33;11.33;;;;;15.30;100.00;101069.66;4778551;29;45585;-83
2023/05/15 17:35:32;;;;;;;;;9.33;9.33;;;;;15.27;100.00;101088.41;4780250;29;45413;-84
2023/05/15 17:37:57;;;;;;;;;8.33;6.33;;;;;15.27;100.00;101075.91;4781556;29;45405;-83
2023/05/15 17:40:23;;;;;;;;;7.33;7.00;;;;;15.26;100.00;101098.22;4781114;29;47697;-84
2023/05/15 17:42:48;;;;;;;;;7.67;6.00;;;;;15.21;100.00;101097.34;4782233;29;45524;-84
2023/05/15 17:45:14;;;;;;;;;8.33;8.33;;;;;15.16;100.00;101101.78;4783084;29;45432;-84
2023/05/15 17:47:40;;;;;;;;;8.67;6.00;;;;;15.17;100.00;101101.81;4771024;29;45530;-84
2023/05/15 17:50:14;;;;;;;;;9.00;9.00;;;;;15.32;100.00;101103.59;4768864;29;48265;-84
2023/05/15 17:52:40;;;;;;;;;12.00;11.00;;;;;15.23;100.00;101122.38;4768186;29;45353;-84
2023/05/15 17:55:06;;;;;;;;;9.67;9.67;;;;;15.21;100.00;101121.47;4784332;29;45468;-84
2023/05/15 17:57:31;;;;;;;;;11.00;8.00;;;;;15.17;100.00;101119.69;4781429;29;45405;-84
2023/05/15 17:59:57;;;;;;;;;2.67;2.67;;;;;15.12;100.00;101125.00;4780497;29;45416;-84
2023/05/15 18:02:22;;;;;;;;;10.33;10.33;;;;;15.08;100.00;101131.25;4762100;29;45711;-84
2023/05/15 18:04:47;;;;;;;;;10.00;10.00;;;;;14.98;100.00;101126.78;4764466;29;45684;-84
2023/05/15 18:07:13;;;;;;;;;10.67;9.00;;;;;15.07;100.00;101128.56;4778808;29;45428;-83
2023/05/15 18:09:38;;;;;;;;;12.67;11.00;;;;;15.12;100.00;101132.16;4777824;29;47225;-84
2023/05/15 18:12:05;;;;;;;;;7.67;7.00;;;;;15.13;100.00;101142.00;4765195;29;45460;-84
2023/05/15 18:14:30;;;;;;;;;13.33;11.00;;;;;15.14;100.00;101139.28;4763823;29;45594;-84
2023/05/15 18:16:56;;;;;;;;;10.00;10.00;;;;;15.09;100.00;101132.13;4778432;29;45553;-84
2023/05/15 18:19:21;;;;;;;;;10.00;8.67;;;;;15.14;100.00;101139.28;4763856;29;45345;-84
2023/05/15 18:21:47;;;;;;;;;8.67;6.00;;;;;15.18;100.00;101137.53;4777721;29;45925;-84
2023/05/15 18:24:12;;;;;;;;;7.67;7.00;;;;;15.18;100.00;101143.75;4764533;29;45424;-84
2023/05/15 18:26:37;;;;;;;;;9.33;9.33;;;;;15.24;100.00;101142.00;4764363;29;45626;-84
2023/05/15 18:29:03;;;;;;;;;6.67;6.67;;;;;15.17;100.00;101138.44;4777849;29;46965;-84
2023/05/15 18:31:28;;;;;;;;;9.00;9.00;;;;;15.24;100.00;101150.94;4764559;29;45471;-84
2023/05/15 18:33:54;;;;;;;;;9.00;7.33;;;;;15.27;100.00;101142.91;4778628;29;45424;-84
2023/05/15 18:36:20;;;;;;;;;7.67;6.33;;;;;15.30;100.00;101153.63;4779856;29;45365;-84
2023/05/15 18:38:46;;;;;;;;;10.00;9.00;;;;;15.36;100.00;101150.94;4765330;29;45426;-84
2023/05/15 18:41:11;;;;;;;;;8.33;8.33;;;;;15.40;100.00;101150.03;4777686;29;45341;-84
2023/05/15 18:43:37;;;;;;;;;7.67;6.00;;;;;15.49;100.00;101148.25;4763408;29;45419;-84
2023/05/15 18:46:02;;;;;;;;;13.67;11.00;;;;;15.50;100.00;101150.94;4781857;29;45637;-84
2023/05/15 18:48:28;;;;;;;;;11.33;7.67;;;;;15.46;100.00;101159.00;4748691;29;47127;-84
2023/05/15 18:50:54;;;;;;;;;5.00;5.00;;;;;15.88;100.00;101149.19;4778096;29;45372;-84
2023/05/15 18:53:20;;;;;;;;;8.33;8.33;;;;;15.48;100.00;101158.09;4762109;29;45358;-84
2023/05/15 18:55:46;;;;;;;;;9.67;8.33;;;;;15.53;100.00;101166.13;4763517;29;45479;-84
2023/05/15 18:58:11;;;;;;;;;10.67;9.00;;;;;15.49;100.00;101167.94;4777026;29;47028;-84
2023/05/15 19:00:36;;;;;;;;;7.33;6.00;;;;;15.38;100.00;101167.03;4765134;29;45316;-84